sensor_id;sensor_type;location;lat;lon;timestamp;P1;durP1;ratioP1;P2;durP2;ratioP2
5821;SDS011;2937;48.562;8.022;2023-09-30T00:00:26;14.17;;;6.40;;
5821;SDS011;2937;48.562;8.022;2023-09-30T00:05:19;12.53;;;6.10;;
5821;SDS011;2937;48.562;8.022;2023-09-30T00:10:11;15.53;;;5.60;;
5821;SDS011;2937;48.562;8.022;2023-09-30T00:15:06;9.73;;;6.00;;
5821;SDS011;2937;48.562;8.022;2023-09-30T00:19:59;16.67;;;6.70;;
5821;SDS011;2937;48.562;8.022;2023-09-30T00:24:52;16.70;;;7.03;;
5821;SDS011;2937;48.562;8.022;2023-09-30T00:29:44;14.00;;;7.87;;
5821;SDS011;2937;48.562;8.022;2023-09-30T00:34:38;14.40;;;7.17;;
5821;SDS011;2937;48.562;8.022;2023-09-30T00:39:32;11.90;;;6.23;;
5821;SDS011;2937;48.562;8.022;2023-09-30T00:44:24;12.20;;;5.80;;
5821;SDS011;2937;48.562;8.022;2023-09-30T00:49:17;12.33;;;5.33;;
5821;SDS011;2937;48.562;8.022;2023-09-30T00:54:11;13.47;;;6.20;;
5821;SDS011;2937;48.562;8.022;2023-09-30T00:59:05;9.50;;;5.80;;
5821;SDS011;2937;48.562;8.022;2023-09-30T01:03:57;12.30;;;5.57;;
5821;SDS011;2937;48.562;8.022;2023-09-30T01:08:51;8.50;;;5.33;;
5821;SDS011;2937;48.562;8.022;2023-09-30T01:13:46;8.90;;;4.73;;
5821;SDS011;2937;48.562;8.022;2023-09-30T01:18:41;20.63;;;6.00;;
5821;SDS011;2937;48.562;8.022;2023-09-30T01:23:36;10.10;;;5.47;;
5821;SDS011;2937;48.562;8.022;2023-09-30T01:28:30;9.77;;;5.70;;
5821;SDS011;2937;48.562;8.022;2023-09-30T01:33:22;9.90;;;6.27;;
5821;SDS011;2937;48.562;8.022;2023-09-30T01:38:15;9.57;;;5.60;;
5821;SDS011;2937;48.562;8.022;2023-09-30T01:43:09;9.50;;;6.17;;
5821;SDS011;2937;48.562;8.022;2023-09-30T01:48:05;9.70;;;6.30;;
5821;SDS011;2937;48.562;8.022;2023-09-30T01:52:58;11.80;;;6.00;;
5821;SDS011;2937;48.562;8.022;2023-09-30T01:57:50;8.30;;;5.67;;
5821;SDS011;2937;48.562;8.022;2023-09-30T02:02:44;9.80;;;5.70;;
5821;SDS011;2937;48.562;8.022;2023-09-30T02:07:37;9.27;;;5.73;;
5821;SDS011;2937;48.562;8.022;2023-09-30T02:12:30;8.80;;;5.23;;
5821;SDS011;2937;48.562;8.022;2023-09-30T02:17:23;8.40;;;5.13;;
5821;SDS011;2937;48.562;8.022;2023-09-30T02:22:17;10.47;;;5.63;;
5821;SDS011;2937;48.562;8.022;2023-09-30T02:27:10;7.03;;;5.43;;
5821;SDS011;2937;48.562;8.022;2023-09-30T02:32:04;8.27;;;5.50;;
5821;SDS011;2937;48.562;8.022;2023-09-30T02:36:57;9.10;;;5.50;;
5821;SDS011;2937;48.562;8.022;2023-09-30T02:41:54;8.80;;;5.67;;
5821;SDS011;2937;48.562;8.022;2023-09-30T02:46:47;7.77;;;4.90;;
5821;SDS011;2937;48.562;8.022;2023-09-30T02:51:39;6.90;;;5.00;;
5821;SDS011;2937;48.562;8.022;2023-09-30T02:56:32;8.70;;;5.37;;
5821;SDS011;2937;48.562;8.022;2023-09-30T03:01:26;9.60;;;5.73;;
5821;SDS011;2937;48.562;8.022;2023-09-30T03:06:19;9.93;;;5.30;;
5821;SDS011;2937;48.562;8.022;2023-09-30T03:11:12;7.73;;;4.83;;
5821;SDS011;2937;48.562;8.022;2023-09-30T03:16:05;5.77;;;5.03;;
5821;SDS011;2937;48.562;8.022;2023-09-30T03:21:00;7.80;;;4.93;;
5821;SDS011;2937;48.562;8.022;2023-09-30T03:25:55;6.27;;;4.67;;
5821;SDS011;2937;48.562;8.022;2023-09-30T03:30:48;7.27;;;5.00;;
5821;SDS011;2937;48.562;8.022;2023-09-30T03:35:41;6.77;;;4.20;;
5821;SDS011;2937;48.562;8.022;2023-09-30T03:40:35;7.73;;;4.87;;
5821;SDS011;2937;48.562;8.022;2023-09-30T03:45:29;6.40;;;4.80;;
5821;SDS011;2937;48.562;8.022;2023-09-30T03:50:24;7.43;;;4.90;;
5821;SDS011;2937;48.562;8.022;2023-09-30T03:55:17;7.23;;;4.97;;
5821;SDS011;2937;48.562;8.022;2023-09-30T04:00:14;9.50;;;5.47;;
5821;SDS011;2937;48.562;8.022;2023-09-30T04:05:11;7.53;;;5.10;;
5821;SDS011;2937;48.562;8.022;2023-09-30T04:10:05;10.40;;;5.20;;
5821;SDS011;2937;48.562;8.022;2023-09-30T04:14:58;9.90;;;5.80;;
5821;SDS011;2937;48.562;8.022;2023-09-30T04:19:52;9.93;;;5.40;;
5821;SDS011;2937;48.562;8.022;2023-09-30T04:24:45;8.73;;;5.50;;
5821;SDS011;2937;48.562;8.022;2023-09-30T04:29:37;7.57;;;5.90;;
5821;SDS011;2937;48.562;8.022;2023-09-30T04:34:30;11.10;;;7.07;;
5821;SDS011;2937;48.562;8.022;2023-09-30T04:39:24;9.57;;;6.10;;
5821;SDS011;2937;48.562;8.022;2023-09-30T04:44:17;8.27;;;6.43;;
5821;SDS011;2937;48.562;8.022;2023-09-30T04:49:10;12.13;;;7.77;;
5821;SDS011;2937;48.562;8.022;2023-09-30T04:54:02;15.33;;;7.83;;
5821;SDS011;2937;48.562;8.022;2023-09-30T04:58:59;10.40;;;6.60;;
5821;SDS011;2937;48.562;8.022;2023-09-30T05:03:52;11.60;;;6.47;;
5821;SDS011;2937;48.562;8.022;2023-09-30T05:08:45;8.73;;;5.90;;
5821;SDS011;2937;48.562;8.022;2023-09-30T05:13:39;11.10;;;6.50;;
5821;SDS011;2937;48.562;8.022;2023-09-30T05:18:33;8.83;;;6.27;;
5821;SDS011;2937;48.562;8.022;2023-09-30T05:23:25;11.30;;;6.30;;
5821;SDS011;2937;48.562;8.022;2023-09-30T05:28:19;9.43;;;6.07;;
5821;SDS011;2937;48.562;8.022;2023-09-30T05:33:12;8.73;;;6.53;;
5821;SDS011;2937;48.562;8.022;2023-09-30T05:38:07;7.57;;;5.40;;
5821;SDS011;2937;48.562;8.022;2023-09-30T05:43:01;8.70;;;5.20;;
5821;SDS011;2937;48.562;8.022;2023-09-30T05:47:54;13.40;;;6.53;;
5821;SDS011;2937;48.562;8.022;2023-09-30T05:52:50;10.60;;;6.40;;
5821;SDS011;2937;48.562;8.022;2023-09-30T05:57:44;8.23;;;5.90;;
5821;SDS011;2937;48.562;8.022;2023-09-30T06:02:37;8.93;;;5.13;;
5821;SDS011;2937;48.562;8.022;2023-09-30T06:07:31;9.83;;;6.10;;
5821;SDS011;2937;48.562;8.022;2023-09-30T06:12:25;9.70;;;5.63;;
5821;SDS011;2937;48.562;8.022;2023-09-30T06:17:19;7.27;;;5.40;;
5821;SDS011;2937;48.562;8.022;2023-09-30T06:22:12;8.30;;;5.40;;
5821;SDS011;2937;48.562;8.022;2023-09-30T06:27:06;11.67;;;5.77;;
5821;SDS011;2937;48.562;8.022;2023-09-30T06:31:58;10.13;;;5.80;;
5821;SDS011;2937;48.562;8.022;2023-09-30T06:36:52;11.27;;;5.90;;
5821;SDS011;2937;48.562;8.022;2023-09-30T06:41:45;10.50;;;5.80;;
5821;SDS011;2937;48.562;8.022;2023-09-30T06:46:38;13.60;;;6.20;;
5821;SDS011;2937;48.562;8.022;2023-09-30T06:51:34;7.17;;;5.63;;
5821;SDS011;2937;48.562;8.022;2023-09-30T06:56:28;9.97;;;6.07;;
5821;SDS011;2937;48.562;8.022;2023-09-30T07:01:21;8.83;;;6.20;;
5821;SDS011;2937;48.562;8.022;2023-09-30T07:06:21;13.97;;;6.17;;
5821;SDS011;2937;48.562;8.022;2023-09-30T07:11:13;6.33;;;5.57;;
5821;SDS011;2937;48.562;8.022;2023-09-30T07:16:07;9.80;;;6.70;;
5821;SDS011;2937;48.562;8.022;2023-09-30T07:21:00;12.10;;;5.90;;
5821;SDS011;2937;48.562;8.022;2023-09-30T07:25:53;8.67;;;6.53;;
5821;SDS011;2937;48.562;8.022;2023-09-30T07:30:45;7.27;;;5.40;;
5821;SDS011;2937;48.562;8.022;2023-09-30T07:35:39;8.67;;;5.33;;
5821;SDS011;2937;48.562;8.022;2023-09-30T07:40:32;6.97;;;5.57;;
5821;SDS011;2937;48.562;8.022;2023-09-30T07:45:25;10.40;;;6.20;;
5821;SDS011;2937;48.562;8.022;2023-09-30T07:50:17;8.60;;;6.00;;
5821;SDS011;2937;48.562;8.022;2023-09-30T07:55:12;7.90;;;5.70;;
5821;SDS011;2937;48.562;8.022;2023-09-30T08:00:05;10.17;;;5.70;;
5821;SDS011;2937;48.562;8.022;2023-09-30T08:05:00;8.83;;;5.60;;
5821;SDS011;2937;48.562;8.022;2023-09-30T08:09:53;7.50;;;5.10;;
5821;SDS011;2937;48.562;8.022;2023-09-30T08:14:47;8.23;;;5.07;;
5821;SDS011;2937;48.562;8.022;2023-09-30T08:19:40;7.83;;;5.23;;
5821;SDS011;2937;48.562;8.022;2023-09-30T08:24:33;8.10;;;5.00;;
5821;SDS011;2937;48.562;8.022;2023-09-30T08:29:25;7.37;;;4.60;;
5821;SDS011;2937;48.562;8.022;2023-09-30T08:34:19;7.03;;;5.10;;
5821;SDS011;2937;48.562;8.022;2023-09-30T08:39:13;9.97;;;4.90;;
5821;SDS011;2937;48.562;8.022;2023-09-30T08:44:06;6.80;;;4.93;;
5821;SDS011;2937;48.562;8.022;2023-09-30T08:48:59;7.33;;;5.40;;
5821;SDS011;2937;48.562;8.022;2023-09-30T08:53:54;7.67;;;4.93;;
5821;SDS011;2937;48.562;8.022;2023-09-30T08:58:47;9.47;;;5.23;;
5821;SDS011;2937;48.562;8.022;2023-09-30T09:03:40;9.97;;;5.50;;
5821;SDS011;2937;48.562;8.022;2023-09-30T09:08:33;7.20;;;5.73;;
5821;SDS011;2937;48.562;8.022;2023-09-30T09:13:27;8.73;;;6.03;;
5821;SDS011;2937;48.562;8.022;2023-09-30T09:18:30;7.53;;;5.77;;
5821;SDS011;2937;48.562;8.022;2023-09-30T09:23:23;6.90;;;4.70;;
5821;SDS011;2937;48.562;8.022;2023-09-30T09:28:16;9.07;;;4.73;;
5821;SDS011;2937;48.562;8.022;2023-09-30T09:33:10;7.30;;;4.40;;
5821;SDS011;2937;48.562;8.022;2023-09-30T09:38:04;8.00;;;4.17;;
5821;SDS011;2937;48.562;8.022;2023-09-30T09:42:57;3.90;;;3.30;;
5821;SDS011;2937;48.562;8.022;2023-09-30T09:47:50;4.13;;;2.97;;
5821;SDS011;2937;48.562;8.022;2023-09-30T09:52:45;7.13;;;2.80;;
5821;SDS011;2937;48.562;8.022;2023-09-30T09:57:39;5.30;;;3.90;;
5821;SDS011;2937;48.562;8.022;2023-09-30T10:02:32;5.60;;;3.90;;
5821;SDS011;2937;48.562;8.022;2023-09-30T10:07:25;7.00;;;3.67;;
5821;SDS011;2937;48.562;8.022;2023-09-30T10:12:20;5.03;;;3.30;;
5821;SDS011;2937;48.562;8.022;2023-09-30T10:17:14;5.67;;;3.30;;
5821;SDS011;2937;48.562;8.022;2023-09-30T10:22:20;5.23;;;3.77;;
5821;SDS011;2937;48.562;8.022;2023-09-30T10:27:31;6.03;;;3.40;;
5821;SDS011;2937;48.562;8.022;2023-09-30T10:32:36;5.57;;;3.57;;
5821;SDS011;2937;48.562;8.022;2023-09-30T10:37:50;4.37;;;3.27;;
5821;SDS011;2937;48.562;8.022;2023-09-30T10:42:43;6.30;;;3.20;;
5821;SDS011;2937;48.562;8.022;2023-09-30T10:47:37;6.20;;;3.67;;
5821;SDS011;2937;48.562;8.022;2023-09-30T10:52:30;5.40;;;3.03;;
5821;SDS011;2937;48.562;8.022;2023-09-30T10:57:27;6.77;;;3.47;;
5821;SDS011;2937;48.562;8.022;2023-09-30T11:02:20;6.03;;;3.50;;
5821;SDS011;2937;48.562;8.022;2023-09-30T11:07:16;5.10;;;3.10;;
5821;SDS011;2937;48.562;8.022;2023-09-30T11:12:13;4.90;;;3.30;;
5821;SDS011;2937;48.562;8.022;2023-09-30T11:17:07;5.67;;;3.20;;
5821;SDS011;2937;48.562;8.022;2023-09-30T11:22:00;7.33;;;3.50;;
5821;SDS011;2937;48.562;8.022;2023-09-30T11:26:54;8.00;;;3.73;;
5821;SDS011;2937;48.562;8.022;2023-09-30T11:31:47;6.47;;;3.70;;
5821;SDS011;2937;48.562;8.022;2023-09-30T11:36:47;5.43;;;3.50;;
5821;SDS011;2937;48.562;8.022;2023-09-30T11:41:40;5.43;;;3.90;;
5821;SDS011;2937;48.562;8.022;2023-09-30T11:46:33;6.00;;;4.00;;
5821;SDS011;2937;48.562;8.022;2023-09-30T11:51:44;7.60;;;4.03;;
5821;SDS011;2937;48.562;8.022;2023-09-30T11:56:37;6.30;;;3.97;;
5821;SDS011;2937;48.562;8.022;2023-09-30T12:01:30;6.43;;;4.47;;
5821;SDS011;2937;48.562;8.022;2023-09-30T12:06:23;8.00;;;4.10;;
5821;SDS011;2937;48.562;8.022;2023-09-30T12:11:17;6.67;;;4.40;;
5821;SDS011;2937;48.562;8.022;2023-09-30T12:16:10;6.53;;;4.40;;
5821;SDS011;2937;48.562;8.022;2023-09-30T12:21:04;9.60;;;4.57;;
5821;SDS011;2937;48.562;8.022;2023-09-30T12:25:57;10.63;;;4.57;;
5821;SDS011;2937;48.562;8.022;2023-09-30T12:31:06;10.80;;;5.07;;
5821;SDS011;2937;48.562;8.022;2023-09-30T12:35:59;12.20;;;5.20;;
5821;SDS011;2937;48.562;8.022;2023-09-30T12:40:52;8.80;;;4.97;;
5821;SDS011;2937;48.562;8.022;2023-09-30T12:45:44;8.27;;;5.30;;
5821;SDS011;2937;48.562;8.022;2023-09-30T12:50:38;7.80;;;5.00;;
5821;SDS011;2937;48.562;8.022;2023-09-30T12:55:31;9.60;;;5.97;;
5821;SDS011;2937;48.562;8.022;2023-09-30T13:00:23;8.93;;;5.50;;
5821;SDS011;2937;48.562;8.022;2023-09-30T13:05:17;11.13;;;5.50;;
5821;SDS011;2937;48.562;8.022;2023-09-30T13:10:12;10.37;;;5.80;;
5821;SDS011;2937;48.562;8.022;2023-09-30T13:15:05;8.83;;;5.80;;
5821;SDS011;2937;48.562;8.022;2023-09-30T13:20:00;10.57;;;5.70;;
5821;SDS011;2937;48.562;8.022;2023-09-30T13:24:56;11.37;;;6.30;;
5821;SDS011;2937;48.562;8.022;2023-09-30T13:29:50;8.77;;;5.70;;
5821;SDS011;2937;48.562;8.022;2023-09-30T13:34:46;10.13;;;6.50;;
5821;SDS011;2937;48.562;8.022;2023-09-30T13:39:40;10.30;;;5.80;;
5821;SDS011;2937;48.562;8.022;2023-09-30T13:44:32;9.83;;;5.67;;
5821;SDS011;2937;48.562;8.022;2023-09-30T13:49:27;8.53;;;5.90;;
5821;SDS011;2937;48.562;8.022;2023-09-30T13:54:19;10.00;;;6.73;;
5821;SDS011;2937;48.562;8.022;2023-09-30T13:59:12;10.43;;;6.47;;
5821;SDS011;2937;48.562;8.022;2023-09-30T14:04:04;9.50;;;5.63;;
5821;SDS011;2937;48.562;8.022;2023-09-30T14:08:59;9.93;;;6.17;;
5821;SDS011;2937;48.562;8.022;2023-09-30T14:13:52;10.57;;;6.40;;
5821;SDS011;2937;48.562;8.022;2023-09-30T14:18:45;11.63;;;6.40;;
5821;SDS011;2937;48.562;8.022;2023-09-30T14:23:37;11.20;;;6.90;;
5821;SDS011;2937;48.562;8.022;2023-09-30T14:28:32;10.87;;;7.10;;
5821;SDS011;2937;48.562;8.022;2023-09-30T14:33:25;12.03;;;6.90;;
5821;SDS011;2937;48.562;8.022;2023-09-30T14:38:18;10.00;;;6.30;;
5821;SDS011;2937;48.562;8.022;2023-09-30T14:43:10;12.50;;;6.93;;
5821;SDS011;2937;48.562;8.022;2023-09-30T14:48:05;10.70;;;6.63;;
5821;SDS011;2937;48.562;8.022;2023-09-30T14:52:57;9.50;;;6.10;;
5821;SDS011;2937;48.562;8.022;2023-09-30T14:57:50;10.73;;;6.00;;
5821;SDS011;2937;48.562;8.022;2023-09-30T15:02:43;11.53;;;6.30;;
5821;SDS011;2937;48.562;8.022;2023-09-30T15:07:37;10.80;;;6.03;;
5821;SDS011;2937;48.562;8.022;2023-09-30T15:12:30;11.37;;;6.27;;
5821;SDS011;2937;48.562;8.022;2023-09-30T15:17:22;10.87;;;6.77;;
5821;SDS011;2937;48.562;8.022;2023-09-30T15:22:15;10.90;;;6.30;;
5821;SDS011;2937;48.562;8.022;2023-09-30T15:27:09;11.30;;;6.70;;
5821;SDS011;2937;48.562;8.022;2023-09-30T15:32:02;11.70;;;6.47;;
5821;SDS011;2937;48.562;8.022;2023-09-30T15:36:56;10.80;;;5.80;;
5821;SDS011;2937;48.562;8.022;2023-09-30T15:41:49;13.37;;;8.53;;
5821;SDS011;2937;48.562;8.022;2023-09-30T15:46:43;12.77;;;6.27;;
5821;SDS011;2937;48.562;8.022;2023-09-30T15:51:36;11.27;;;6.30;;
5821;SDS011;2937;48.562;8.022;2023-09-30T15:56:28;12.00;;;6.30;;
5821;SDS011;2937;48.562;8.022;2023-09-30T16:01:35;10.70;;;5.73;;
5821;SDS011;2937;48.562;8.022;2023-09-30T16:06:29;12.07;;;7.00;;
5821;SDS011;2937;48.562;8.022;2023-09-30T16:11:23;11.73;;;6.50;;
5821;SDS011;2937;48.562;8.022;2023-09-30T16:16:15;11.03;;;6.57;;
5821;SDS011;2937;48.562;8.022;2023-09-30T16:21:08;9.67;;;5.47;;
5821;SDS011;2937;48.562;8.022;2023-09-30T16:26:02;10.60;;;6.30;;
5821;SDS011;2937;48.562;8.022;2023-09-30T16:30:57;12.07;;;6.10;;
5821;SDS011;2937;48.562;8.022;2023-09-30T16:35:51;24.77;;;7.07;;
5821;SDS011;2937;48.562;8.022;2023-09-30T16:40:45;17.27;;;7.10;;
5821;SDS011;2937;48.562;8.022;2023-09-30T16:45:39;13.07;;;6.30;;
5821;SDS011;2937;48.562;8.022;2023-09-30T16:50:32;15.20;;;6.20;;
5821;SDS011;2937;48.562;8.022;2023-09-30T16:55:25;14.63;;;7.90;;
5821;SDS011;2937;48.562;8.022;2023-09-30T17:00:19;11.53;;;6.13;;
5821;SDS011;2937;48.562;8.022;2023-09-30T17:05:14;10.87;;;6.00;;
5821;SDS011;2937;48.562;8.022;2023-09-30T17:10:07;13.77;;;6.13;;
5821;SDS011;2937;48.562;8.022;2023-09-30T17:15:01;10.57;;;5.60;;
5821;SDS011;2937;48.562;8.022;2023-09-30T17:19:54;11.40;;;6.07;;
5821;SDS011;2937;48.562;8.022;2023-09-30T17:24:48;13.20;;;6.10;;
5821;SDS011;2937;48.562;8.022;2023-09-30T17:29:41;11.00;;;5.87;;
5821;SDS011;2937;48.562;8.022;2023-09-30T17:34:33;12.30;;;6.63;;
5821;SDS011;2937;48.562;8.022;2023-09-30T17:39:28;22.10;;;14.07;;
5821;SDS011;2937;48.562;8.022;2023-09-30T17:44:22;24.10;;;12.07;;
5821;SDS011;2937;48.562;8.022;2023-09-30T17:49:15;25.43;;;12.20;;
5821;SDS011;2937;48.562;8.022;2023-09-30T17:54:08;25.87;;;11.67;;
5821;SDS011;2937;48.562;8.022;2023-09-30T17:59:01;22.70;;;11.37;;
5821;SDS011;2937;48.562;8.022;2023-09-30T18:03:55;29.90;;;12.30;;
5821;SDS011;2937;48.562;8.022;2023-09-30T18:08:48;23.07;;;12.87;;
5821;SDS011;2937;48.562;8.022;2023-09-30T18:13:41;17.67;;;10.50;;
5821;SDS011;2937;48.562;8.022;2023-09-30T18:18:35;21.03;;;10.17;;
5821;SDS011;2937;48.562;8.022;2023-09-30T18:23:30;27.13;;;11.70;;
5821;SDS011;2937;48.562;8.022;2023-09-30T18:28:23;22.10;;;9.47;;
5821;SDS011;2937;48.562;8.022;2023-09-30T18:33:18;19.70;;;10.00;;
5821;SDS011;2937;48.562;8.022;2023-09-30T18:38:11;24.80;;;12.43;;
5821;SDS011;2937;48.562;8.022;2023-09-30T18:43:07;23.57;;;12.13;;
5821;SDS011;2937;48.562;8.022;2023-09-30T18:48:02;27.87;;;13.40;;
5821;SDS011;2937;48.562;8.022;2023-09-30T18:52:55;32.67;;;12.90;;
5821;SDS011;2937;48.562;8.022;2023-09-30T18:57:47;30.47;;;12.47;;
5821;SDS011;2937;48.562;8.022;2023-09-30T19:02:41;26.80;;;11.37;;
5821;SDS011;2937;48.562;8.022;2023-09-30T19:07:34;20.57;;;10.00;;
5821;SDS011;2937;48.562;8.022;2023-09-30T19:12:27;19.10;;;10.63;;
5821;SDS011;2937;48.562;8.022;2023-09-30T19:17:20;29.53;;;10.37;;
5821;SDS011;2937;48.562;8.022;2023-09-30T19:22:14;27.83;;;9.83;;
5821;SDS011;2937;48.562;8.022;2023-09-30T19:27:06;26.23;;;10.17;;
5821;SDS011;2937;48.562;8.022;2023-09-30T19:31:59;21.70;;;9.47;;
5821;SDS011;2937;48.562;8.022;2023-09-30T19:36:52;22.80;;;8.40;;
5821;SDS011;2937;48.562;8.022;2023-09-30T19:41:46;20.00;;;9.93;;
5821;SDS011;2937;48.562;8.022;2023-09-30T19:46:38;16.17;;;8.90;;
5821;SDS011;2937;48.562;8.022;2023-09-30T19:51:31;19.03;;;9.80;;
5821;SDS011;2937;48.562;8.022;2023-09-30T19:56:24;19.97;;;9.10;;
5821;SDS011;2937;48.562;8.022;2023-09-30T20:01:18;18.43;;;8.40;;
5821;SDS011;2937;48.562;8.022;2023-09-30T20:06:15;17.53;;;8.00;;
5821;SDS011;2937;48.562;8.022;2023-09-30T20:11:15;16.37;;;8.67;;
5821;SDS011;2937;48.562;8.022;2023-09-30T20:16:08;15.13;;;8.97;;
5821;SDS011;2937;48.562;8.022;2023-09-30T20:21:02;21.27;;;10.30;;
5821;SDS011;2937;48.562;8.022;2023-09-30T20:25:54;15.13;;;8.10;;
5821;SDS011;2937;48.562;8.022;2023-09-30T20:30:47;15.77;;;8.87;;
5821;SDS011;2937;48.562;8.022;2023-09-30T20:35:40;16.70;;;8.00;;
5821;SDS011;2937;48.562;8.022;2023-09-30T20:40:34;16.23;;;8.70;;
5821;SDS011;2937;48.562;8.022;2023-09-30T20:45:27;19.60;;;9.50;;
5821;SDS011;2937;48.562;8.022;2023-09-30T20:50:20;22.00;;;9.00;;
5821;SDS011;2937;48.562;8.022;2023-09-30T20:55:12;15.90;;;8.10;;
5821;SDS011;2937;48.562;8.022;2023-09-30T21:00:07;14.20;;;7.70;;
5821;SDS011;2937;48.562;8.022;2023-09-30T21:05:00;16.13;;;7.13;;
5821;SDS011;2937;48.562;8.022;2023-09-30T21:09:53;16.13;;;8.27;;
5821;SDS011;2937;48.562;8.022;2023-09-30T21:14:46;15.30;;;8.53;;
5821;SDS011;2937;48.562;8.022;2023-09-30T21:19:40;12.40;;;7.13;;
5821;SDS011;2937;48.562;8.022;2023-09-30T21:24:33;11.87;;;8.13;;
5821;SDS011;2937;48.562;8.022;2023-09-30T21:29:28;14.50;;;7.80;;
5821;SDS011;2937;48.562;8.022;2023-09-30T21:34:20;18.47;;;8.37;;
5821;SDS011;2937;48.562;8.022;2023-09-30T21:39:14;13.43;;;7.93;;
5821;SDS011;2937;48.562;8.022;2023-09-30T21:44:07;15.10;;;8.00;;
5821;SDS011;2937;48.562;8.022;2023-09-30T21:49:00;15.53;;;7.60;;
5821;SDS011;2937;48.562;8.022;2023-09-30T21:53:53;15.10;;;7.33;;
5821;SDS011;2937;48.562;8.022;2023-09-30T21:58:47;15.90;;;8.67;;
5821;SDS011;2937;48.562;8.022;2023-09-30T22:03:40;16.13;;;8.27;;
5821;SDS011;2937;48.562;8.022;2023-09-30T22:08:33;14.33;;;7.60;;
5821;SDS011;2937;48.562;8.022;2023-09-30T22:13:28;15.20;;;8.63;;
5821;SDS011;2937;48.562;8.022;2023-09-30T22:18:22;14.27;;;8.20;;
5821;SDS011;2937;48.562;8.022;2023-09-30T22:23:15;14.60;;;8.57;;
5821;SDS011;2937;48.562;8.022;2023-09-30T22:28:08;17.00;;;9.27;;
5821;SDS011;2937;48.562;8.022;2023-09-30T22:33:02;15.43;;;8.30;;
5821;SDS011;2937;48.562;8.022;2023-09-30T22:37:57;16.43;;;8.97;;
5821;SDS011;2937;48.562;8.022;2023-09-30T22:42:50;14.53;;;9.60;;
5821;SDS011;2937;48.562;8.022;2023-09-30T22:47:43;17.33;;;10.00;;
5821;SDS011;2937;48.562;8.022;2023-09-30T22:52:36;19.10;;;9.00;;
5821;SDS011;2937;48.562;8.022;2023-09-30T22:57:30;20.17;;;7.60;;
5821;SDS011;2937;48.562;8.022;2023-09-30T23:02:23;17.47;;;8.30;;
5821;SDS011;2937;48.562;8.022;2023-09-30T23:07:16;14.53;;;8.20;;
5821;SDS011;2937;48.562;8.022;2023-09-30T23:12:10;17.57;;;8.93;;
5821;SDS011;2937;48.562;8.022;2023-09-30T23:17:04;14.50;;;8.30;;
5821;SDS011;2937;48.562;8.022;2023-09-30T23:21:57;15.10;;;8.20;;
5821;SDS011;2937;48.562;8.022;2023-09-30T23:26:50;14.90;;;8.53;;
5821;SDS011;2937;48.562;8.022;2023-09-30T23:31:47;15.20;;;8.90;;
5821;SDS011;2937;48.562;8.022;2023-09-30T23:36:44;17.20;;;8.93;;
5821;SDS011;2937;48.562;8.022;2023-09-30T23:41:38;17.80;;;9.23;;
5821;SDS011;2937;48.562;8.022;2023-09-30T23:46:36;14.20;;;9.00;;
5821;SDS011;2937;48.562;8.022;2023-09-30T23:51:29;16.77;;;8.50;;
5821;SDS011;2937;48.562;8.022;2023-09-30T23:56:23;17.37;;;8.33;;
